sensor_id;sensor_type;location;lat;lon;timestamp;P1;durP1;ratioP1;P2;durP2;ratioP2
78542;SDS011;67836;52.430;14.446;2023-03-01T00:02:39;13.38;;;5.22;;
78542;SDS011;67836;52.430;14.446;2023-03-01T00:05:23;10.25;;;4.82;;
78542;SDS011;67836;52.430;14.446;2023-03-01T00:08:06;9.38;;;4.60;;
78542;SDS011;67836;52.430;14.446;2023-03-01T00:10:59;9.57;;;3.90;;
78542;SDS011;67836;52.430;14.446;2023-03-01T00:13:45;9.57;;;4.30;;
78542;SDS011;67836;52.430;14.446;2023-03-01T00:16:31;9.90;;;4.38;;
78542;SDS011;67836;52.430;14.446;2023-03-01T00:19:17;8.77;;;3.55;;
78542;SDS011;67836;52.430;14.446;2023-03-01T00:22:03;8.98;;;4.43;;
78542;SDS011;67836;52.430;14.446;2023-03-01T00:24:47;10.43;;;3.85;;
78542;SDS011;67836;52.430;14.446;2023-03-01T00:27:31;11.95;;;5.35;;
78542;SDS011;67836;52.430;14.446;2023-03-01T00:30:15;12.15;;;5.00;;
78542;SDS011;67836;52.430;14.446;2023-03-01T00:32:59;10.48;;;5.63;;
78542;SDS011;67836;52.430;14.446;2023-03-01T00:35:43;8.75;;;4.75;;
78542;SDS011;67836;52.430;14.446;2023-03-01T00:38:27;11.80;;;5.55;;
78542;SDS011;67836;52.430;14.446;2023-03-01T00:41:14;11.70;;;5.28;;
78542;SDS011;67836;52.430;14.446;2023-03-01T00:43:59;7.28;;;3.67;;
78542;SDS011;67836;52.430;14.446;2023-03-01T00:46:43;9.00;;;3.80;;
78542;SDS011;67836;52.430;14.446;2023-03-01T00:49:27;6.18;;;3.08;;
78542;SDS011;67836;52.430;14.446;2023-03-01T00:52:11;7.20;;;4.10;;
78542;SDS011;67836;52.430;14.446;2023-03-01T00:54:55;5.28;;;3.13;;
78542;SDS011;67836;52.430;14.446;2023-03-01T00:57:39;9.95;;;5.35;;
78542;SDS011;67836;52.430;14.446;2023-03-01T01:00:23;9.88;;;5.30;;
78542;SDS011;67836;52.430;14.446;2023-03-01T01:03:07;9.13;;;4.50;;
78542;SDS011;67836;52.430;14.446;2023-03-01T01:05:51;8.82;;;4.15;;
78542;SDS011;67836;52.430;14.446;2023-03-01T01:08:35;6.53;;;2.83;;
78542;SDS011;67836;52.430;14.446;2023-03-01T01:11:21;9.10;;;4.53;;
78542;SDS011;67836;52.430;14.446;2023-03-01T01:14:06;7.47;;;4.20;;
78542;SDS011;67836;52.430;14.446;2023-03-01T01:16:50;7.90;;;3.90;;
78542;SDS011;67836;52.430;14.446;2023-03-01T01:19:34;9.05;;;4.22;;
78542;SDS011;67836;52.430;14.446;2023-03-01T01:22:18;0.82;;;0.82;;
78542;SDS011;67836;52.430;14.446;2023-03-01T01:25:02;2.30;;;1.67;;
78542;SDS011;67836;52.430;14.446;2023-03-01T01:27:46;7.93;;;4.10;;
78542;SDS011;67836;52.430;14.446;2023-03-01T01:30:30;12.07;;;3.92;;
78542;SDS011;67836;52.430;14.446;2023-03-01T01:33:14;10.30;;;5.20;;
78542;SDS011;67836;52.430;14.446;2023-03-01T01:35:58;14.13;;;5.78;;
78542;SDS011;67836;52.430;14.446;2023-03-01T01:38:42;14.00;;;6.40;;
78542;SDS011;67836;52.430;14.446;2023-03-01T01:41:26;11.27;;;4.88;;
78542;SDS011;67836;52.430;14.446;2023-03-01T01:44:22;9.73;;;4.18;;
78542;SDS011;67836;52.430;14.446;2023-03-01T01:47:14;11.70;;;5.45;;
78542;SDS011;67836;52.430;14.446;2023-03-01T01:50:02;4.13;;;2.10;;
78542;SDS011;67836;52.430;14.446;2023-03-01T01:52:46;11.02;;;4.63;;
78542;SDS011;67836;52.430;14.446;2023-03-01T01:55:32;9.50;;;4.15;;
78542;SDS011;67836;52.430;14.446;2023-03-01T01:58:17;10.80;;;4.80;;
78542;SDS011;67836;52.430;14.446;2023-03-01T02:01:03;8.35;;;4.15;;
78542;SDS011;67836;52.430;14.446;2023-03-01T02:03:47;3.58;;;2.53;;
78542;SDS011;67836;52.430;14.446;2023-03-01T02:06:33;8.65;;;4.65;;
78542;SDS011;67836;52.430;14.446;2023-03-01T02:09:21;9.45;;;5.18;;
78542;SDS011;67836;52.430;14.446;2023-03-01T02:12:06;5.47;;;3.08;;
78542;SDS011;67836;52.430;14.446;2023-03-01T02:18:00;2.97;;;2.05;;
78542;SDS011;67836;52.430;14.446;2023-03-01T02:24:02;7.22;;;4.03;;
78542;SDS011;67836;52.430;14.446;2023-03-01T02:27:09;7.45;;;3.40;;
78542;SDS011;67836;52.430;14.446;2023-03-01T02:29:53;7.25;;;3.22;;
78542;SDS011;67836;52.430;14.446;2023-03-01T02:32:39;11.00;;;5.05;;
78542;SDS011;67836;52.430;14.446;2023-03-01T02:35:25;9.02;;;4.20;;
78542;SDS011;67836;52.430;14.446;2023-03-01T02:38:09;7.75;;;3.75;;
78542;SDS011;67836;52.430;14.446;2023-03-01T02:40:54;2.42;;;1.70;;
78542;SDS011;67836;52.430;14.446;2023-03-01T02:43:38;1.58;;;1.48;;
78542;SDS011;67836;52.430;14.446;2023-03-01T02:46:24;5.75;;;2.95;;
78542;SDS011;67836;52.430;14.446;2023-03-01T02:52:30;8.20;;;3.45;;
78542;SDS011;67836;52.430;14.446;2023-03-01T02:55:21;4.38;;;3.22;;
78542;SDS011;67836;52.430;14.446;2023-03-01T02:58:05;2.08;;;1.60;;
78542;SDS011;67836;52.430;14.446;2023-03-01T03:00:49;8.20;;;3.25;;
78542;SDS011;67836;52.430;14.446;2023-03-01T03:03:33;9.27;;;3.78;;
78542;SDS011;67836;52.430;14.446;2023-03-01T03:06:17;8.98;;;4.45;;
78542;SDS011;67836;52.430;14.446;2023-03-01T03:09:02;12.20;;;3.97;;
78542;SDS011;67836;52.430;14.446;2023-03-01T03:11:47;7.03;;;3.17;;
78542;SDS011;67836;52.430;14.446;2023-03-01T03:14:31;5.70;;;2.80;;
78542;SDS011;67836;52.430;14.446;2023-03-01T03:17:18;10.95;;;4.55;;
78542;SDS011;67836;52.430;14.446;2023-03-01T03:20:03;7.95;;;4.00;;
78542;SDS011;67836;52.430;14.446;2023-03-01T03:22:48;10.23;;;3.97;;
78542;SDS011;67836;52.430;14.446;2023-03-01T03:25:33;10.57;;;4.68;;
78542;SDS011;67836;52.430;14.446;2023-03-01T03:28:21;7.40;;;4.22;;
78542;SDS011;67836;52.430;14.446;2023-03-01T03:31:06;8.25;;;4.10;;
78542;SDS011;67836;52.430;14.446;2023-03-01T03:33:51;9.05;;;4.80;;
78542;SDS011;67836;52.430;14.446;2023-03-01T03:36:35;8.40;;;4.40;;
78542;SDS011;67836;52.430;14.446;2023-03-01T03:39:19;7.03;;;3.53;;
78542;SDS011;67836;52.430;14.446;2023-03-01T03:42:02;9.48;;;4.28;;
78542;SDS011;67836;52.430;14.446;2023-03-01T03:44:46;7.00;;;4.07;;
78542;SDS011;67836;52.430;14.446;2023-03-01T03:47:30;3.70;;;2.38;;
78542;SDS011;67836;52.430;14.446;2023-03-01T03:50:15;6.07;;;3.72;;
78542;SDS011;67836;52.430;14.446;2023-03-01T03:53:03;9.40;;;4.70;;
78542;SDS011;67836;52.430;14.446;2023-03-01T03:55:49;9.73;;;3.92;;
78542;SDS011;67836;52.430;14.446;2023-03-01T03:58:34;6.80;;;4.13;;
78542;SDS011;67836;52.430;14.446;2023-03-01T04:01:19;9.55;;;3.88;;
78542;SDS011;67836;52.430;14.446;2023-03-01T04:04:03;11.07;;;4.65;;
78542;SDS011;67836;52.430;14.446;2023-03-01T04:06:48;9.45;;;4.60;;
78542;SDS011;67836;52.430;14.446;2023-03-01T04:09:31;6.50;;;2.85;;
78542;SDS011;67836;52.430;14.446;2023-03-01T04:12:15;10.50;;;4.80;;
78542;SDS011;67836;52.430;14.446;2023-03-01T04:15:05;10.18;;;4.88;;
78542;SDS011;67836;52.430;14.446;2023-03-01T04:17:56;10.10;;;4.45;;
78542;SDS011;67836;52.430;14.446;2023-03-01T04:20:41;9.13;;;4.45;;
78542;SDS011;67836;52.430;14.446;2023-03-01T04:23:25;8.20;;;3.80;;
78542;SDS011;67836;52.430;14.446;2023-03-01T04:26:09;6.72;;;2.67;;
78542;SDS011;67836;52.430;14.446;2023-03-01T04:28:53;11.82;;;4.78;;
78542;SDS011;67836;52.430;14.446;2023-03-01T04:31:37;8.13;;;4.10;;
78542;SDS011;67836;52.430;14.446;2023-03-01T04:34:21;5.15;;;2.88;;
78542;SDS011;67836;52.430;14.446;2023-03-01T04:37:05;6.40;;;3.65;;
78542;SDS011;67836;52.430;14.446;2023-03-01T04:39:49;9.85;;;4.38;;
78542;SDS011;67836;52.430;14.446;2023-03-01T04:42:33;9.75;;;5.25;;
78542;SDS011;67836;52.430;14.446;2023-03-01T04:45:18;10.98;;;4.97;;
78542;SDS011;67836;52.430;14.446;2023-03-01T04:48:02;8.48;;;3.40;;
78542;SDS011;67836;52.430;14.446;2023-03-01T04:50:47;7.13;;;4.05;;
78542;SDS011;67836;52.430;14.446;2023-03-01T04:53:31;6.80;;;3.20;;
78542;SDS011;67836;52.430;14.446;2023-03-01T04:56:16;8.65;;;5.13;;
78542;SDS011;67836;52.430;14.446;2023-03-01T04:59:01;10.23;;;5.63;;
78542;SDS011;67836;52.430;14.446;2023-03-01T05:01:49;9.27;;;4.30;;
78542;SDS011;67836;52.430;14.446;2023-03-01T05:04:39;5.25;;;2.85;;
78542;SDS011;67836;52.430;14.446;2023-03-01T05:07:23;7.07;;;3.00;;
78542;SDS011;67836;52.430;14.446;2023-03-01T05:10:08;5.45;;;2.85;;
78542;SDS011;67836;52.430;14.446;2023-03-01T05:12:52;16.10;;;5.65;;
78542;SDS011;67836;52.430;14.446;2023-03-01T05:15:36;9.07;;;4.55;;
78542;SDS011;67836;52.430;14.446;2023-03-01T05:18:20;3.22;;;2.00;;
78542;SDS011;67836;52.430;14.446;2023-03-01T05:21:06;5.72;;;3.35;;
78542;SDS011;67836;52.430;14.446;2023-03-01T05:23:54;10.73;;;4.32;;
78542;SDS011;67836;52.430;14.446;2023-03-01T05:26:39;10.48;;;5.10;;
78542;SDS011;67836;52.430;14.446;2023-03-01T05:29:24;11.43;;;4.28;;
78542;SDS011;67836;52.430;14.446;2023-03-01T05:32:08;6.72;;;3.97;;
78542;SDS011;67836;52.430;14.446;2023-03-01T05:34:53;4.35;;;2.75;;
78542;SDS011;67836;52.430;14.446;2023-03-01T05:37:45;8.65;;;4.40;;
78542;SDS011;67836;52.430;14.446;2023-03-01T05:40:32;7.32;;;4.00;;
78542;SDS011;67836;52.430;14.446;2023-03-01T05:43:17;7.90;;;3.88;;
78542;SDS011;67836;52.430;14.446;2023-03-01T05:46:01;10.95;;;5.47;;
78542;SDS011;67836;52.430;14.446;2023-03-01T05:48:46;8.63;;;4.70;;
78542;SDS011;67836;52.430;14.446;2023-03-01T05:51:31;9.13;;;4.07;;
78542;SDS011;67836;52.430;14.446;2023-03-01T05:54:17;7.45;;;3.60;;
78542;SDS011;67836;52.430;14.446;2023-03-01T05:57:05;10.43;;;5.35;;
78542;SDS011;67836;52.430;14.446;2023-03-01T05:59:49;9.70;;;5.30;;
78542;SDS011;67836;52.430;14.446;2023-03-01T06:02:33;10.82;;;4.88;;
78542;SDS011;67836;52.430;14.446;2023-03-01T06:05:16;2.63;;;1.73;;
78542;SDS011;67836;52.430;14.446;2023-03-01T06:08:02;8.85;;;4.72;;
78542;SDS011;67836;52.430;14.446;2023-03-01T06:10:46;11.90;;;5.63;;
78542;SDS011;67836;52.430;14.446;2023-03-01T06:13:31;7.88;;;4.57;;
78542;SDS011;67836;52.430;14.446;2023-03-01T06:16:15;9.52;;;5.18;;
78542;SDS011;67836;52.430;14.446;2023-03-01T06:18:59;8.95;;;4.45;;
78542;SDS011;67836;52.430;14.446;2023-03-01T06:21:43;9.43;;;5.20;;
78542;SDS011;67836;52.430;14.446;2023-03-01T06:24:27;9.63;;;5.18;;
78542;SDS011;67836;52.430;14.446;2023-03-01T06:27:12;8.60;;;4.55;;
78542;SDS011;67836;52.430;14.446;2023-03-01T06:29:56;12.80;;;5.30;;
78542;SDS011;67836;52.430;14.446;2023-03-01T06:32:41;4.72;;;2.55;;
78542;SDS011;67836;52.430;14.446;2023-03-01T06:35:28;8.25;;;3.97;;
78542;SDS011;67836;52.430;14.446;2023-03-01T06:38:15;8.25;;;4.70;;
78542;SDS011;67836;52.430;14.446;2023-03-01T06:41:02;6.85;;;3.58;;
78542;SDS011;67836;52.430;14.446;2023-03-01T06:43:46;3.50;;;2.13;;
78542;SDS011;67836;52.430;14.446;2023-03-01T06:46:30;5.55;;;1.92;;
78542;SDS011;67836;52.430;14.446;2023-03-01T06:49:14;4.72;;;2.63;;
78542;SDS011;67836;52.430;14.446;2023-03-01T06:51:59;8.05;;;3.97;;
78542;SDS011;67836;52.430;14.446;2023-03-01T06:54:43;15.52;;;5.55;;
78542;SDS011;67836;52.430;14.446;2023-03-01T06:57:27;13.05;;;6.32;;
78542;SDS011;67836;52.430;14.446;2023-03-01T07:00:11;10.50;;;4.45;;
78542;SDS011;67836;52.430;14.446;2023-03-01T07:02:58;4.40;;;2.60;;
78542;SDS011;67836;52.430;14.446;2023-03-01T07:05:42;6.38;;;3.05;;
78542;SDS011;67836;52.430;14.446;2023-03-01T07:08:27;14.50;;;7.05;;
78542;SDS011;67836;52.430;14.446;2023-03-01T07:11:12;10.18;;;5.32;;
78542;SDS011;67836;52.430;14.446;2023-03-01T07:13:56;12.63;;;5.40;;
78542;SDS011;67836;52.430;14.446;2023-03-01T07:16:42;11.10;;;5.57;;
78542;SDS011;67836;52.430;14.446;2023-03-01T07:19:26;13.02;;;5.82;;
78542;SDS011;67836;52.430;14.446;2023-03-01T07:22:10;10.07;;;4.78;;
78542;SDS011;67836;52.430;14.446;2023-03-01T07:24:54;12.18;;;6.05;;
78542;SDS011;67836;52.430;14.446;2023-03-01T07:27:38;12.55;;;6.00;;
78542;SDS011;67836;52.430;14.446;2023-03-01T07:30:22;11.52;;;6.25;;
78542;SDS011;67836;52.430;14.446;2023-03-01T07:33:09;11.18;;;6.72;;
78542;SDS011;67836;52.430;14.446;2023-03-01T07:35:58;15.57;;;7.32;;
78542;SDS011;67836;52.430;14.446;2023-03-01T07:38:46;11.63;;;5.80;;
78542;SDS011;67836;52.430;14.446;2023-03-01T07:41:30;12.93;;;8.02;;
78542;SDS011;67836;52.430;14.446;2023-03-01T07:44:14;16.80;;;8.98;;
78542;SDS011;67836;52.430;14.446;2023-03-01T07:46:59;24.02;;;13.25;;
78542;SDS011;67836;52.430;14.446;2023-03-01T07:49:43;11.32;;;6.63;;
78542;SDS011;67836;52.430;14.446;2023-03-01T07:52:27;10.48;;;4.70;;
78542;SDS011;67836;52.430;14.446;2023-03-01T07:55:11;6.03;;;2.83;;
78542;SDS011;67836;52.430;14.446;2023-03-01T07:57:55;15.02;;;9.00;;
78542;SDS011;67836;52.430;14.446;2023-03-01T08:03:23;17.58;;;11.15;;
78542;SDS011;67836;52.430;14.446;2023-03-01T08:06:08;20.52;;;11.75;;
78542;SDS011;67836;52.430;14.446;2023-03-01T08:08:53;18.63;;;10.43;;
78542;SDS011;67836;52.430;14.446;2023-03-01T08:11:43;17.42;;;9.95;;
78542;SDS011;67836;52.430;14.446;2023-03-01T08:14:27;14.07;;;7.97;;
78542;SDS011;67836;52.430;14.446;2023-03-01T08:17:13;12.38;;;7.93;;
78542;SDS011;67836;52.430;14.446;2023-03-01T08:19:58;12.35;;;7.82;;
78542;SDS011;67836;52.430;14.446;2023-03-01T08:22:42;12.63;;;8.57;;
78542;SDS011;67836;52.430;14.446;2023-03-01T08:25:26;13.05;;;8.13;;
78542;SDS011;67836;52.430;14.446;2023-03-01T08:28:10;14.10;;;7.82;;
78542;SDS011;67836;52.430;14.446;2023-03-01T08:30:54;12.20;;;7.70;;
78542;SDS011;67836;52.430;14.446;2023-03-01T08:33:38;13.65;;;7.20;;
78542;SDS011;67836;52.430;14.446;2023-03-01T08:36:26;12.88;;;7.88;;
78542;SDS011;67836;52.430;14.446;2023-03-01T08:39:13;12.85;;;8.05;;
78542;SDS011;67836;52.430;14.446;2023-03-01T08:41:58;12.73;;;7.38;;
78542;SDS011;67836;52.430;14.446;2023-03-01T08:44:42;12.52;;;6.97;;
78542;SDS011;67836;52.430;14.446;2023-03-01T08:47:26;13.40;;;7.55;;
78542;SDS011;67836;52.430;14.446;2023-03-01T08:50:11;12.40;;;6.78;;
78542;SDS011;67836;52.430;14.446;2023-03-01T08:52:55;10.82;;;6.22;;
78542;SDS011;67836;52.430;14.446;2023-03-01T08:58:22;10.00;;;6.10;;
78542;SDS011;67836;52.430;14.446;2023-03-01T09:01:07;9.60;;;5.82;;
78542;SDS011;67836;52.430;14.446;2023-03-01T09:03:53;10.65;;;5.88;;
78542;SDS011;67836;52.430;14.446;2023-03-01T09:06:37;10.45;;;6.57;;
78542;SDS011;67836;52.430;14.446;2023-03-01T09:09:21;10.18;;;6.13;;
78542;SDS011;67836;52.430;14.446;2023-03-01T09:12:05;9.20;;;5.70;;
78542;SDS011;67836;52.430;14.446;2023-03-01T09:14:49;8.85;;;5.45;;
78542;SDS011;67836;52.430;14.446;2023-03-01T09:17:34;10.52;;;5.57;;
78542;SDS011;67836;52.430;14.446;2023-03-01T09:20:18;9.68;;;5.60;;
78542;SDS011;67836;52.430;14.446;2023-03-01T09:23:02;10.57;;;5.47;;
78542;SDS011;67836;52.430;14.446;2023-03-01T09:25:46;9.82;;;5.63;;
78542;SDS011;67836;52.430;14.446;2023-03-01T09:28:31;9.27;;;5.20;;
78542;SDS011;67836;52.430;14.446;2023-03-01T09:31:15;11.57;;;5.40;;
78542;SDS011;67836;52.430;14.446;2023-03-01T09:34:00;10.80;;;5.18;;
78542;SDS011;67836;52.430;14.446;2023-03-01T09:36:45;9.05;;;3.83;;
78542;SDS011;67836;52.430;14.446;2023-03-01T09:39:30;10.25;;;5.30;;
78542;SDS011;67836;52.430;14.446;2023-03-01T09:42:15;10.10;;;5.30;;
78542;SDS011;67836;52.430;14.446;2023-03-01T09:47:48;10.50;;;4.93;;
78542;SDS011;67836;52.430;14.446;2023-03-01T09:50:34;8.48;;;3.63;;
78542;SDS011;67836;52.430;14.446;2023-03-01T09:53:20;10.18;;;5.07;;
78542;SDS011;67836;52.430;14.446;2023-03-01T09:56:11;10.60;;;4.72;;
78542;SDS011;67836;52.430;14.446;2023-03-01T10:04:48;7.78;;;4.10;;
78542;SDS011;67836;52.430;14.446;2023-03-01T10:10:28;9.85;;;4.82;;
78542;SDS011;67836;52.430;14.446;2023-03-01T10:13:19;6.32;;;3.17;;
78542;SDS011;67836;52.430;14.446;2023-03-01T10:16:21;6.38;;;3.03;;
78542;SDS011;67836;52.430;14.446;2023-03-01T10:19:21;10.77;;;4.45;;
78542;SDS011;67836;52.430;14.446;2023-03-01T10:22:13;7.32;;;3.40;;
78542;SDS011;67836;52.430;14.446;2023-03-01T10:25:01;8.48;;;3.97;;
78542;SDS011;67836;52.430;14.446;2023-03-01T10:27:51;8.82;;;3.53;;
78542;SDS011;67836;52.430;14.446;2023-03-01T10:30:38;8.85;;;4.20;;
78542;SDS011;67836;52.430;14.446;2023-03-01T10:33:27;3.05;;;1.45;;
78542;SDS011;67836;52.430;14.446;2023-03-01T10:36:14;8.80;;;4.47;;
78542;SDS011;67836;52.430;14.446;2023-03-01T10:38:59;10.57;;;4.35;;
78542;SDS011;67836;52.430;14.446;2023-03-01T10:41:54;8.57;;;4.00;;
78542;SDS011;67836;52.430;14.446;2023-03-01T10:44:44;10.68;;;4.78;;
78542;SDS011;67836;52.430;14.446;2023-03-01T10:47:29;7.45;;;4.07;;
78542;SDS011;67836;52.430;14.446;2023-03-01T10:50:23;5.10;;;2.55;;
78542;SDS011;67836;52.430;14.446;2023-03-01T10:56:20;9.57;;;3.92;;
78542;SDS011;67836;52.430;14.446;2023-03-01T10:59:05;3.40;;;1.95;;
78542;SDS011;67836;52.430;14.446;2023-03-01T11:02:01;8.13;;;3.78;;
78542;SDS011;67836;52.430;14.446;2023-03-01T11:04:57;8.63;;;4.57;;
78542;SDS011;67836;52.430;14.446;2023-03-01T11:07:56;9.93;;;4.40;;
78542;SDS011;67836;52.430;14.446;2023-03-01T11:10:43;9.18;;;3.97;;
78542;SDS011;67836;52.430;14.446;2023-03-01T11:13:27;11.25;;;4.10;;
78542;SDS011;67836;52.430;14.446;2023-03-01T11:16:12;9.52;;;3.47;;
78542;SDS011;67836;52.430;14.446;2023-03-01T11:19:03;3.80;;;2.40;;
78542;SDS011;67836;52.430;14.446;2023-03-01T11:24:46;7.32;;;3.38;;
78542;SDS011;67836;52.430;14.446;2023-03-01T11:27:32;4.45;;;2.63;;
78542;SDS011;67836;52.430;14.446;2023-03-01T11:33:11;3.63;;;1.77;;
78542;SDS011;67836;52.430;14.446;2023-03-01T11:37:07;7.70;;;3.40;;
78542;SDS011;67836;52.430;14.446;2023-03-01T11:42:29;5.30;;;2.55;;
78542;SDS011;67836;52.430;14.446;2023-03-01T11:45:22;6.38;;;3.22;;
78542;SDS011;67836;52.430;14.446;2023-03-01T11:48:11;9.27;;;3.90;;
78542;SDS011;67836;52.430;14.446;2023-03-01T11:54:30;6.38;;;3.33;;
78542;SDS011;67836;52.430;14.446;2023-03-01T11:57:26;8.65;;;4.00;;
78542;SDS011;67836;52.430;14.446;2023-03-01T12:06:57;9.43;;;3.45;;
78542;SDS011;67836;52.430;14.446;2023-03-01T12:09:47;7.75;;;3.15;;
78542;SDS011;67836;52.430;14.446;2023-03-01T12:16:01;4.57;;;2.40;;
78542;SDS011;67836;52.430;14.446;2023-03-01T12:18:50;4.50;;;1.73;;
78542;SDS011;67836;52.430;14.446;2023-03-01T12:25:15;7.72;;;3.70;;
78542;SDS011;67836;52.430;14.446;2023-03-01T12:31:22;2.17;;;1.40;;
78542;SDS011;67836;52.430;14.446;2023-03-01T12:40:43;7.53;;;2.92;;
78542;SDS011;67836;52.430;14.446;2023-03-01T12:46:34;5.63;;;2.38;;
78542;SDS011;67836;52.430;14.446;2023-03-01T12:49:26;7.05;;;3.08;;
78542;SDS011;67836;52.430;14.446;2023-03-01T12:55:25;3.50;;;1.00;;
78542;SDS011;67836;52.430;14.446;2023-03-01T12:58:29;6.47;;;2.05;;
78542;SDS011;67836;52.430;14.446;2023-03-01T13:01:26;8.13;;;2.53;;
78542;SDS011;67836;52.430;14.446;2023-03-01T13:07:36;5.47;;;2.10;;
78542;SDS011;67836;52.430;14.446;2023-03-01T13:13:26;4.90;;;2.25;;
78542;SDS011;67836;52.430;14.446;2023-03-01T13:16:21;7.18;;;2.88;;
78542;SDS011;67836;52.430;14.446;2023-03-01T13:21:59;5.63;;;2.17;;
78542;SDS011;67836;52.430;14.446;2023-03-01T13:24:44;5.18;;;2.33;;
78542;SDS011;67836;52.430;14.446;2023-03-01T13:27:28;5.85;;;2.45;;
78542;SDS011;67836;52.430;14.446;2023-03-01T13:37:08;5.78;;;2.75;;
78542;SDS011;67836;52.430;14.446;2023-03-01T13:42:52;6.82;;;2.80;;
78542;SDS011;67836;52.430;14.446;2023-03-01T13:48:26;5.60;;;2.53;;
78542;SDS011;67836;52.430;14.446;2023-03-01T13:51:12;4.70;;;2.40;;
78542;SDS011;67836;52.430;14.446;2023-03-01T13:53:57;5.60;;;2.10;;
78542;SDS011;67836;52.430;14.446;2023-03-01T13:56:41;5.43;;;2.42;;
78542;SDS011;67836;52.430;14.446;2023-03-01T13:59:27;5.43;;;2.85;;
78542;SDS011;67836;52.430;14.446;2023-03-01T14:02:13;5.43;;;2.28;;
78542;SDS011;67836;52.430;14.446;2023-03-01T14:04:58;6.13;;;2.10;;
78542;SDS011;67836;52.430;14.446;2023-03-01T14:07:43;5.55;;;2.30;;
78542;SDS011;67836;52.430;14.446;2023-03-01T14:10:37;4.82;;;2.15;;
78542;SDS011;67836;52.430;14.446;2023-03-01T14:19:55;5.45;;;2.00;;
78542;SDS011;67836;52.430;14.446;2023-03-01T14:22:41;5.00;;;2.20;;
78542;SDS011;67836;52.430;14.446;2023-03-01T14:25:31;4.20;;;1.88;;
78542;SDS011;67836;52.430;14.446;2023-03-01T14:31:31;5.10;;;1.80;;
78542;SDS011;67836;52.430;14.446;2023-03-01T14:34:23;3.05;;;1.60;;
78542;SDS011;67836;52.430;14.446;2023-03-01T14:40:27;4.28;;;1.73;;
78542;SDS011;67836;52.430;14.446;2023-03-01T14:43:15;5.05;;;1.80;;
78542;SDS011;67836;52.430;14.446;2023-03-01T14:46:02;4.40;;;1.77;;
78542;SDS011;67836;52.430;14.446;2023-03-01T14:48:48;3.92;;;1.67;;
78542;SDS011;67836;52.430;14.446;2023-03-01T14:51:37;4.07;;;1.83;;
78542;SDS011;67836;52.430;14.446;2023-03-01T14:57:17;6.05;;;2.58;;
78542;SDS011;67836;52.430;14.446;2023-03-01T15:00:03;3.90;;;1.55;;
78542;SDS011;67836;52.430;14.446;2023-03-01T15:02:51;3.00;;;1.30;;
78542;SDS011;67836;52.430;14.446;2023-03-01T15:05:36;4.18;;;1.40;;
78542;SDS011;67836;52.430;14.446;2023-03-01T15:08:21;2.78;;;1.45;;
78542;SDS011;67836;52.430;14.446;2023-03-01T15:14:01;2.30;;;1.08;;
78542;SDS011;67836;52.430;14.446;2023-03-01T15:16:45;3.88;;;1.35;;
78542;SDS011;67836;52.430;14.446;2023-03-01T15:19:29;2.75;;;1.30;;
78542;SDS011;67836;52.430;14.446;2023-03-01T15:22:17;3.95;;;1.50;;
78542;SDS011;67836;52.430;14.446;2023-03-01T15:25:14;5.40;;;1.80;;
78542;SDS011;67836;52.430;14.446;2023-03-01T15:28:00;5.47;;;2.22;;
78542;SDS011;67836;52.430;14.446;2023-03-01T15:30:51;2.63;;;1.35;;
78542;SDS011;67836;52.430;14.446;2023-03-01T15:33:37;3.88;;;1.70;;
78542;SDS011;67836;52.430;14.446;2023-03-01T15:48:13;8.73;;;3.67;;
78542;SDS011;67836;52.430;14.446;2023-03-01T15:50:59;4.28;;;1.77;;
78542;SDS011;67836;52.430;14.446;2023-03-01T15:53:48;7.28;;;2.80;;
78542;SDS011;67836;52.430;14.446;2023-03-01T15:56:34;7.07;;;3.00;;
78542;SDS011;67836;52.430;14.446;2023-03-01T15:59:19;8.57;;;3.75;;
78542;SDS011;67836;52.430;14.446;2023-03-01T16:02:08;11.15;;;4.68;;
78542;SDS011;67836;52.430;14.446;2023-03-01T16:04:56;9.82;;;4.72;;
78542;SDS011;67836;52.430;14.446;2023-03-01T16:10:25;8.65;;;3.67;;
78542;SDS011;67836;52.430;14.446;2023-03-01T16:13:12;9.50;;;3.22;;
78542;SDS011;67836;52.430;14.446;2023-03-01T16:15:57;8.48;;;3.50;;
78542;SDS011;67836;52.430;14.446;2023-03-01T16:18:43;8.82;;;3.83;;
78542;SDS011;67836;52.430;14.446;2023-03-01T16:21:27;8.40;;;3.65;;
78542;SDS011;67836;52.430;14.446;2023-03-01T16:24:11;8.45;;;3.60;;
78542;SDS011;67836;52.430;14.446;2023-03-01T16:26:55;7.60;;;3.33;;
78542;SDS011;67836;52.430;14.446;2023-03-01T16:29:40;9.00;;;3.63;;
78542;SDS011;67836;52.430;14.446;2023-03-01T16:32:24;10.68;;;3.40;;
78542;SDS011;67836;52.430;14.446;2023-03-01T16:35:08;7.38;;;2.67;;
78542;SDS011;67836;52.430;14.446;2023-03-01T16:37:53;7.65;;;3.10;;
78542;SDS011;67836;52.430;14.446;2023-03-01T16:40:37;9.20;;;3.30;;
78542;SDS011;67836;52.430;14.446;2023-03-01T16:43:21;8.43;;;3.33;;
78542;SDS011;67836;52.430;14.446;2023-03-01T16:46:10;9.48;;;3.85;;
78542;SDS011;67836;52.430;14.446;2023-03-01T16:48:57;7.35;;;3.13;;
78542;SDS011;67836;52.430;14.446;2023-03-01T16:51:41;9.65;;;3.75;;
78542;SDS011;67836;52.430;14.446;2023-03-01T16:54:25;10.50;;;4.03;;
78542;SDS011;67836;52.430;14.446;2023-03-01T16:57:09;8.18;;;3.47;;
78542;SDS011;67836;52.430;14.446;2023-03-01T16:59:53;9.85;;;2.97;;
78542;SDS011;67836;52.430;14.446;2023-03-01T17:02:37;9.77;;;3.75;;
78542;SDS011;67836;52.430;14.446;2023-03-01T17:05:22;8.82;;;3.90;;
78542;SDS011;67836;52.430;14.446;2023-03-01T17:08:08;10.07;;;4.78;;
78542;SDS011;67836;52.430;14.446;2023-03-01T17:10:52;15.65;;;6.15;;
78542;SDS011;67836;52.430;14.446;2023-03-01T17:13:37;13.02;;;6.13;;
78542;SDS011;67836;52.430;14.446;2023-03-01T17:16:21;11.43;;;5.28;;
78542;SDS011;67836;52.430;14.446;2023-03-01T17:19:05;11.98;;;5.88;;
78542;SDS011;67836;52.430;14.446;2023-03-01T17:21:50;9.70;;;4.18;;
78542;SDS011;67836;52.430;14.446;2023-03-01T17:24:35;11.30;;;5.30;;
78542;SDS011;67836;52.430;14.446;2023-03-01T17:27:20;8.45;;;4.35;;
78542;SDS011;67836;52.430;14.446;2023-03-01T17:30:04;8.82;;;4.35;;
78542;SDS011;67836;52.430;14.446;2023-03-01T17:32:50;9.73;;;4.28;;
78542;SDS011;67836;52.430;14.446;2023-03-01T17:35:38;21.20;;;11.85;;
78542;SDS011;67836;52.430;14.446;2023-03-01T17:41:05;13.45;;;7.55;;
78542;SDS011;67836;52.430;14.446;2023-03-01T17:43:49;11.93;;;6.90;;
78542;SDS011;67836;52.430;14.446;2023-03-01T17:46:34;15.23;;;7.47;;
78542;SDS011;67836;52.430;14.446;2023-03-01T17:49:18;12.65;;;9.25;;
78542;SDS011;67836;52.430;14.446;2023-03-01T17:52:02;9.45;;;5.93;;
78542;SDS011;67836;52.430;14.446;2023-03-01T17:54:46;11.70;;;5.57;;
78542;SDS011;67836;52.430;14.446;2023-03-01T17:57:30;12.27;;;6.28;;
78542;SDS011;67836;52.430;14.446;2023-03-01T18:00:14;15.40;;;7.10;;
78542;SDS011;67836;52.430;14.446;2023-03-01T18:02:59;18.20;;;9.00;;
78542;SDS011;67836;52.430;14.446;2023-03-01T18:05:44;15.82;;;8.20;;
78542;SDS011;67836;52.430;14.446;2023-03-01T18:08:28;16.83;;;8.05;;
78542;SDS011;67836;52.430;14.446;2023-03-01T18:11:12;16.80;;;8.07;;
78542;SDS011;67836;52.430;14.446;2023-03-01T18:13:56;14.13;;;7.82;;
78542;SDS011;67836;52.430;14.446;2023-03-01T18:16:40;12.23;;;6.07;;
78542;SDS011;67836;52.430;14.446;2023-03-01T18:19:25;11.65;;;6.53;;
78542;SDS011;67836;52.430;14.446;2023-03-01T18:22:09;14.48;;;6.72;;
78542;SDS011;67836;52.430;14.446;2023-03-01T18:24:53;15.20;;;9.20;;
78542;SDS011;67836;52.430;14.446;2023-03-01T18:27:37;16.02;;;8.88;;
78542;SDS011;67836;52.430;14.446;2023-03-01T18:30:21;12.70;;;6.20;;
78542;SDS011;67836;52.430;14.446;2023-03-01T18:33:05;12.43;;;5.93;;